Nett River, Minnesota
Current Conditions -  °F | °C
As of 8:34 AM on Monday 20 Oct 2014 (Local Time) from KVWU Reporting Station
Broken Clouds Broken Clouds  
Wind Chill: 36°   Ceiling: 500
Heat Index: 39°   Visibility: 10mi
Dew Point: 39°   Wind: 5mph
Humidity: 100%   Direction: 310°NW
Pressure: 30"   Gusts: NA
Location:  48.1809°N, 93.8949°W
Report Text: KVWU 201334Z AUTO 31004KT 10SM BKN005 04/04 A3000 RMK AO2
Loading
Personal Weather Stations






























Interactive Weather Map
Tropical Storm Tracking
New forecast layout! Learn more

10-Day Weather Forecast

Advertisements
Track Severe Weather on mobile